Date,TemperatureHighF,TemperatureAvgF,TemperatureLowF,DewpointHighF,DewpointAvgF,DewpointLowF,HumidityHigh,HumidityAvg,HumidityLow,PressureMaxIn,PressureMinIn,WindSpeedMaxMPH,WindSpeedAvgMPH,GustSpeedMaxMPH,PrecipitationSumIn
2013-1-1,41,38,32,38,34,21,97,87,51,30.07,29.89,14,3,17,0.22
2013-1-2,35,30,25,34,29,24,98,97,96,30.09,29.85,10,2,15,0.42
2013-1-3,28,25,18,28,24,17,97,96,94,30.22,30.06,0,0,0,0.00
2013-1-4,23,18,15,20,16,14,94,91,84,30.40,30.22,0,0,0,0.00
2013-1-5,42,33,16,26,14,4,93,51,20,30.46,30.19,9,2,11,0.02
2013-1-6,34,29,24,32,27,22,97,94,78,30.18,30.02,12,3,27,0.01
2013-1-7,42,29,20,23,20,5,96,71,22,30.42,30.16,11,4,18,0.00
2013-1-8,45,34,23,37,22,9,95,67,29,30.42,30.32,11,5,14,0.00
2013-1-9,49,45,38,46,42,38,98,92,79,30.41,30.35,10,3,18,0.02
2013-1-10,52,45,38,51,45,35,98,97,87,30.43,30.23,10,4,16,0.00
2013-1-11,50,45,37,49,45,35,99,99,93,30.23,30.08,12,6,26,0.13
2013-1-12,61,53,49,54,52,49,99,96,76,30.12,29.95,11,4,18,0.00
2013-1-13,57,51,47,52,49,47,99,95,73,30.01,29.90,9,5,16,0.01
2013-1-14,52,49,38,52,49,38,99,99,99,30.06,29.94,11,2,14,0.74
2013-1-15,47,43,40,47,43,40,99,99,99,30.04,29.92,10,4,14,0.49
2013-1-16,53,45,43,47,44,41,100,96,65,29.95,29.87,12,4,19,0.36
2013-1-17,44,37,28,44,36,27,99,98,97,29.90,29.73,16,4,25,0.19
2013-1-18,31,24,18,31,17,-100,98,91,94,30.43,0.00,13,-35,19,0.17
2013-1-19,42,32,24,27,20,10,94,65,30,30.45,30.14,8,4,17,0.24
2013-1-20,37,32,28,28,22,9,86,70,35,30.13,30.04,10,4,24,0.85
2013-1-21,34,27,14,25,16,3,86,65,51,30.06,29.84,13,4,26,0.07
2013-1-22,14,9,3,5,-2,-7,79,62,42,30.29,29.84,21,7,36,0.00
2013-1-23,28,17,8,24,10,-5,85,72,55,30.39,30.13,14,4,31,0.00
2013-1-24,28,17,9,25,9,-12,93,73,27,30.38,29.98,29,8,42,0.00
2013-1-25,32,17,6,32,14,0,97,89,73,30.39,30.15,10,6,19,0.00
2013-1-26,32,23,18,25,20,11,96,89,47,30.39,30.10,12,4,13,0.00
2013-1-27,42,34,28,27,13,-7,93,46,16,30.45,30.33,7,2,9,0.37
2013-1-28,52,43,28,42,38,27,97,82,67,30.33,30.19,10,5,24,0.41
2013-1-29,59,51,45,50,44,40,98,80,51,30.18,29.88,8,3,17,0.02
2013-1-30,52,48,34,52,48,33,99,99,98,29.88,29.31,14,6,26,1.09
2013-1-31,33,20,15,32,18,13,98,92,83,29.98,29.34,8,0,14,0.05
2013-2-1,26,11,3,22,8,1,94,88,75,30.37,29.90,0,0,0,0.00
2013-2-2,28,21,10,23,13,-8,95,73,34,30.41,30.02,7,2,16,0.00
2013-2-3,23,20,15,21,18,13,95,94,93,30.01,29.88,16,5,29,0.00
2013-2-4,38,26,13,31,20,11,93,80,57,30.16,30.00,16,5,25,0.16
2013-2-5,37,33,29,31,25,17,95,76,52,29.99,29.89,8,3,14,0.15
2013-2-6,41,33,26,31,20,10,95,64,33,30.24,29.95,13,3,18,0.28
2013-2-7,36,32,29,32,27,16,97,81,49,30.23,29.97,7,4,15,0.52
2013-2-8,36,31,21,36,30,19,98,96,81,30.02,29.84,19,6,37,0.36
2013-2-9,42,28,16,19,14,3,94,63,22,30.38,29.99,24,7,37,0.10
2013-2-10,36,32,28,34,20,12,98,63,44,30.35,30.10,12,8,21,0.05
2013-2-11,45,40,33,45,35,20,99,87,50,30.11,29.96,12,5,22,0.10
2013-2-12,40,32,25,30,18,2,96,62,24,30.05,29.90,21,6,28,0.26
2013-2-13,34,29,23,33,29,22,98,97,95,29.90,29.59,12,3,18,0.20
2013-2-14,36,27,18,29,23,17,96,87,64,30.07,29.80,9,3,15,0.26
2013-2-15,41,31,22,30,26,21,95,83,52,30.08,29.93,12,3,16,0.05
2013-2-16,21,16,9,20,14,7,94,92,91,29.93,29.79,15,5,26,0.00
2013-2-17,16,10,4,13,7,2,90,88,78,30.32,29.92,25,7,32,0.00
2013-2-18,39,28,15,25,18,8,77,67,48,30.43,30.11,13,5,17,0.09
2013-2-19,33,28,19,32,22,8,97,80,59,30.10,29.84,16,6,27,0.03
2013-2-20,28,20,14,11,6,-16,83,58,16,30.18,29.93,26,9,37,0.00
2013-2-21,46,34,25,27,-7,-41,92,23,3,30.23,30.12,12,4,21,0.00
2013-2-22,40,30,25,40,29,24,99,97,92,30.14,30.04,8,4,12,0.39
2013-2-23,45,41,37,43,40,29,99,95,69,30.07,29.76,6,2,10,0.35
2013-2-24,37,32,25,34,24,18,97,77,50,30.02,29.74,12,5,25,0.00
2013-2-25,37,30,24,26,17,-3,92,62,20,30.06,29.98,11,5,18,0.00
2013-2-26,36,33,28,36,33,27,98,98,93,29.98,29.50,34,7,39,1.16
2013-2-27,40,29,23,34,26,22,98,89,61,29.76,29.55,10,3,21,0.01
2013-2-28,25,20,18,23,18,17,94,93,91,29.87,29.62,17,6,24,0.00
2013-3-1,23,21,19,22,20,17,95,95,94,29.94,29.86,8,1,11,0.00
2013-3-2,22,19,12,21,17,10,95,94,92,29.91,29.84,5,1,10,0.00
2013-3-3,16,12,9,14,10,7,93,92,91,30.04,29.90,8,2,11,0.00
2013-3-4,33,21,10,30,18,8,95,89,69,30.23,30.04,6,2,10,0.08
2013-3-5,37,34,22,36,31,21,98,89,69,30.15,29.51,7,2,13,1.03
2013-3-6,21,16,14,20,15,12,95,93,92,30.16,29.46,0,0,0,0.00
2013-3-7,23,18,16,22,17,15,96,94,93,30.34,30.17,0,0,0,0.00
2013-3-8,28,21,15,28,20,14,97,95,93,30.43,30.28,0,0,0,0.02
2013-3-9,51,39,26,28,23,7,97,56,23,30.41,30.23,5,1,9,0.12
2013-3-10,48,40,35,31,27,23,71,60,49,30.22,30.09,12,7,19,0.00
2013-3-11,43,40,36,43,38,29,99,94,69,30.08,29.80,16,8,24,0.43
2013-3-12,44,32,27,43,31,25,99,97,94,29.99,29.73,7,1,13,0.36
2013-3-13,27,22,14,26,19,11,96,90,80,30.11,29.96,0,0,0,0.00
2013-3-14,27,18,10,15,12,8,92,77,56,30.34,30.10,8,2,17,0.00
2013-3-15,50,38,21,38,28,13,96,68,36,30.23,29.93,14,6,26,0.01
2013-3-16,60,51,45,44,41,38,83,69,51,29.92,29.68,9,5,21,0.00
2013-3-17,56,46,34,46,42,33,97,86,57,29.89,29.77,8,3,12,0.00
2013-3-18,40,34,30,40,33,29,99,98,97,29.93,29.82,13,3,19,0.42
2013-3-19,42,34,25,41,25,4,98,72,31,30.01,29.81,15,4,24,0.07
2013-3-20,36,27,18,21,8,3,92,47,27,30.06,29.82,14,5,27,0.00
2013-3-21,18,13,7,16,7,5,92,79,65,30.01,29.70,15,7,23,0.00
2013-3-22,37,22,10,26,10,5,91,65,29,30.12,30.00,12,3,24,0.00
2013-3-23,40,33,28,37,32,27,97,93,85,30.06,29.86,7,2,14,0.00
2013-3-24,38,31,26,37,30,26,98,96,90,29.87,29.44,8,3,16,0.75
2013-3-25,27,19,16,27,18,15,97,94,93,29.84,29.45,28,6,28,0.00
2013-3-26,20,18,16,19,17,14,94,94,93,30.19,29.84,19,8,25,0.00
2013-3-27,22,18,15,20,17,14,95,94,93,30.30,30.16,18,8,27,0.00
2013-3-28,30,21,16,27,16,-100,96,90,83,30.36,30.25,17,-17,27,0.15
2013-3-29,38,30,23,30,21,12,97,73,37,30.36,30.24,7,2,13,0.07
2013-3-30,46,37,30,35,29,24,97,74,55,30.23,30.05,5,1,9,0.00
2013-3-31,45,40,36,42,39,34,98,95,84,30.04,29.81,9,3,16,0.53
2013-4-1,41,38,33,39,34,27,98,86,75,29.92,29.79,10,4,19,0.01
2013-4-2,38,30,22,28,19,12,92,67,40,30.14,29.92,11,4,17,0.00
2013-4-3,44,32,23,16,12,8,58,45,28,30.28,30.13,10,4,18,0.00
2013-4-4,34,30,25,34,21,6,97,74,36,30.25,29.94,15,3,20,0.01
2013-4-5,40,33,29,33,31,28,98,92,76,30.08,29.91,17,5,24,0.18
2013-4-6,52,42,36,31,29,26,78,60,44,30.21,30.09,13,4,18,0.00
2013-4-7,56,46,35,41,36,30,84,69,47,30.14,30.05,10,4,13,0.00
2013-4-8,62,52,43,48,43,38,85,72,50,30.09,30.00,8,3,12,0.00
2013-4-9,69,58,48,50,47,44,86,70,43,30.13,30.00,8,3,13,0.00
2013-4-10,72,61,52,53,49,41,87,65,45,30.01,29.83,8,3,11,0.00
2013-4-11,64,56,50,55,50,47,98,81,58,29.84,29.58,10,4,19,0.51
2013-4-12,56,48,39,55,44,33,98,87,54,29.74,29.49,11,4,25,0.90
2013-4-13,53,43,35,34,31,24,88,65,34,30.03,29.71,23,7,32,0.00
2013-4-14,58,49,42,42,33,24,96,55,40,30.05,29.89,12,4,17,0.02
2013-4-15,50,46,42,49,45,41,99,98,95,30.16,29.87,8,3,23,0.09
2013-4-16,64,54,48,55,50,47,99,89,60,30.25,30.13,8,4,14,0.01
2013-4-17,60,54,50,54,51,47,97,91,65,30.17,30.06,12,3,23,0.33
2013-4-18,59,54,51,54,52,50,99,92,75,30.06,29.83,15,6,19,0.01
2013-4-19,54,49,31,54,49,31,99,99,98,29.83,29.60,20,8,31,0.79
2013-4-20,41,32,23,33,26,22,98,80,55,30.32,29.73,30,8,41,0.00
2013-4-21,46,38,33,30,25,20,81,61,46,30.43,30.32,9,3,16,0.00
2013-4-22,51,39,30,34,30,22,96,72,44,30.37,30.21,9,2,12,0.00
2013-4-23,57,46,34,41,34,19,84,64,46,30.24,30.06,8,3,11,0.00
2013-4-24,60,50,40,50,44,39,97,83,59,30.07,29.93,13,4,19,0.06
2013-4-25,50,40,27,39,25,1,97,62,13,30.30,29.95,16,5,25,0.01
2013-4-26,54,44,35,33,28,22,66,53,37,30.37,30.29,11,3,17,0.00
2013-4-27,47,43,40,43,39,33,98,87,64,30.34,30.16,8,2,15,0.17
2013-4-28,46,42,37,46,41,36,99,98,95,30.17,29.99,12,5,16,0.92
2013-4-29,56,49,44,49,46,43,99,92,67,30.03,29.92,5,2,9,0.02
2013-4-30,59,51,48,52,49,47,99,94,72,30.09,29.92,6,2,11,0.16
2013-5-1,48,46,43,48,45,43,99,97,90,30.22,30.07,16,4,23,0.01
2013-5-2,48,46,44,48,46,43,99,99,98,30.24,30.16,14,4,25,0.20
2013-5-3,46,43,40,44,42,38,99,95,83,30.18,30.05,14,4,26,0.03
2013-5-4,41,39,34,41,37,25,99,95,68,30.05,29.95,18,7,41,0.09
2013-5-5,43,41,39,43,41,39,99,99,98,30.01,29.80,34,10,64,1.78
2013-5-6,49,43,41,46,40,-100,99,92,60,29.85,0.00,11,-8,30,1.38
2013-5-7,46,42,40,44,40,36,98,95,83,29.90,29.81,9,2,12,0.38
2013-5-8,49,45,42,48,45,42,99,98,94,30.01,29.87,11,3,22,0.13
2013-5-9,57,48,45,50,47,45,99,95,73,30.09,29.96,12,4,18,0.03
2013-5-22,63,56,52,57,54,51,98,93,76,29.87,29.80,4,2,9,0.00
2013-5-23,64,55,49,56,52,48,99,90,62,29.86,29.78,9,3,18,0.01
2013-5-24,48,43,36,48,39,33,98,86,63,30.17,29.77,18,9,33,0.01
2013-5-25,56,45,36,39,33,26,88,66,38,30.31,30.18,18,6,25,0.00
2013-5-26,57,50,42,45,35,9,80,58,22,30.23,30.15,14,3,17,0.00
2013-5-27,65,56,47,55,49,43,93,80,67,30.20,30.07,5,1,11,0.00
2013-5-28,67,58,51,58,54,50,97,86,61,30.14,30.05,5,2,11,0.00
2013-5-29,70,60,52,59,55,50,98,83,56,30.15,30.06,6,2,11,0.01
2013-5-30,68,60,54,59,56,53,98,87,66,30.16,30.08,5,2,13,0.00
2013-5-31,68,60,54,59,56,52,98,87,69,30.13,30.03,14,2,14,0.00
2013-6-1,70,61,56,63,57,55,99,87,60,30.04,29.91,11,2,13,0.00
2013-6-2,61,58,55,60,57,55,99,98,90,29.94,29.80,6,1,10,0.00
2013-6-3,65,58,54,58,55,54,99,90,69,29.91,29.79,8,2,15,0.00
2013-6-4,65,57,54,58,55,52,97,91,77,30.02,29.88,5,0,8,0.00
2013-6-5,64,57,53,60,56,53,99,96,87,30.02,29.90,7,1,9,0.00
2013-6-6,65,59,56,63,58,55,99,97,88,29.91,29.71,5,1,10,0.01
2013-6-7,59,57,55,58,56,55,99,98,94,29.77,29.60,14,3,19,0.01
2013-6-8,66,59,50,59,55,50,98,87,70,30.01,29.76,11,2,11,0.00
2013-6-9,68,60,55,63,58,53,99,92,70,30.06,29.93,7,1,15,0.00
2013-6-10,64,59,55,62,57,52,99,92,65,29.94,29.81,8,2,18,0.00
2013-6-11,64,57,52,57,55,51,99,92,78,29.96,29.82,11,4,18,0.00
2013-6-12,73,65,58,66,62,55,98,89,75,29.96,29.85,16,4,22,0.01
2013-6-13,73,62,51,63,57,49,99,85,57,29.84,29.58,19,5,25,0.00
2013-6-14,59,53,49,50,49,48,98,86,70,30.02,29.69,15,5,25,0.00
2013-6-15,67,58,48,56,50,43,96,76,59,30.10,30.01,9,1,12,0.00
2013-6-16,68,61,56,62,57,54,97,87,73,30.03,29.95,5,1,11,0.00
2013-6-17,66,60,56,62,59,55,98,94,79,29.97,29.87,6,1,11,0.00
2013-6-18,62,58,54,61,58,54,99,98,96,29.88,29.73,8,2,15,0.00
2013-6-19,65,58,52,59,55,52,99,90,68,30.06,29.85,5,1,12,0.00
2013-6-20,65,59,55,60,57,54,99,93,82,30.15,30.05,4,1,10,0.01
2013-6-21,68,61,55,58,56,53,99,85,60,30.18,30.11,7,1,11,0.00
2013-6-22,70,60,52,60,54,47,96,81,55,30.16,30.06,7,1,9,0.00
2013-6-23,68,61,55,62,58,54,99,88,63,30.14,30.06,5,0,7,0.00
2013-6-24,71,62,57,64,60,57,99,91,76,30.12,30.02,6,1,11,0.00
2013-6-25,72,64,59,63,60,56,98,89,68,30.07,29.93,8,2,13,0.00
2013-6-26,71,63,59,65,60,57,99,90,76,29.95,29.84,9,2,17,0.00
2013-6-27,64,61,56,63,60,54,99,96,86,29.85,29.69,10,3,18,0.00
2013-6-28,70,62,57,63,60,56,99,93,76,29.72,29.54,12,4,22,0.00
2013-6-29,70,62,57,59,55,50,98,80,51,29.65,29.53,9,2,13,0.00
2013-6-30,70,62,56,61,57,52,98,83,67,29.72,29.61,8,1,10,0.00
2013-7-1,66,59,56,62,58,55,99,96,85,29.88,29.68,5,1,14,0.00
2013-7-2,66,60,57,63,59,57,99,98,85,30.05,29.86,5,1,11,0.00
2013-7-3,62,59,54,62,59,54,99,99,91,30.13,30.01,6,1,14,0.00
2013-7-4,62,58,56,62,56,-100,100,97,96,30.15,30.09,13,-19,17,0.00
2013-7-5,68,61,58,66,60,58,100,98,87,30.15,30.07,10,2,15,0.01
2013-7-6,64,61,59,64,61,59,100,99,96,30.12,30.04,7,1,13,0.01
2013-7-7,69,62,60,66,61,59,100,98,89,30.08,30.00,6,1,11,0.00
2013-7-8,70,62,58,62,60,58,99,91,67,30.12,30.05,9,2,13,0.00
2013-7-9,74,65,59,66,61,57,99,88,69,30.09,29.99,6,1,12,0.00
2013-7-10,72,64,61,66,62,60,99,94,80,30.02,29.86,9,1,9,0.00
2013-7-11,66,62,60,64,61,59,99,96,88,29.87,29.81,6,1,12,0.00
2013-7-12,68,62,55,63,58,54,99,90,71,29.92,29.81,10,2,13,0.00
2013-7-13,63,58,55,61,57,53,99,95,87,30.07,29.91,8,2,27,0.00
2013-7-14,64,61,58,62,60,58,99,98,94,30.21,30.01,11,3,25,0.00
2013-7-15,72,63,58,64,60,58,99,91,72,30.28,30.20,8,1,18,0.00
2013-7-16,75,66,58,67,60,56,99,83,58,30.25,30.17,7,1,13,0.00
2013-7-17,73,65,59,68,63,58,98,91,81,30.20,30.09,6,2,13,0.00
2013-7-18,75,68,62,67,64,59,97,88,72,30.13,29.99,5,1,9,0.00
2013-7-19,70,66,60,67,64,60,99,93,80,30.02,29.91,7,0,9,0.00
2013-7-20,68,64,62,65,63,59,99,94,77,29.94,29.84,8,1,10,0.00
2013-7-21,70,63,60,64,62,59,99,94,83,29.93,29.84,10,2,16,0.00
2013-7-22,71,63,59,67,62,58,99,94,75,29.90,29.74,9,1,12,0.01
2013-7-23,68,61,58,62,60,58,99,94,76,29.80,29.70,17,5,26,0.00
2013-7-24,70,63,60,64,61,59,99,92,74,29.78,29.70,10,4,17,0.00
2013-7-25,69,62,56,59,57,53,99,85,59,29.96,29.76,8,1,11,0.00
2013-7-26,72,61,56,63,59,54,99,92,70,30.00,29.93,4,0,9,0.00
2013-7-27,66,60,57,62,59,57,99,96,80,29.94,29.82,3,0,9,0.00
2013-7-28,67,60,55,60,57,53,99,92,75,29.95,29.82,6,1,11,0.00
2013-7-29,68,59,52,56,52,47,95,79,55,30.14,29.95,8,2,15,0.00
2013-7-30,65,60,54,61,56,48,98,89,79,30.15,30.09,2,0,6,0.00
2013-7-31,60,58,55,60,58,53,99,97,86,30.11,29.91,6,1,11,0.00
2013-8-1,68,61,59,62,59,58,100,95,80,29.92,29.85,7,2,18,0.00
2013-8-2,70,62,55,61,58,53,99,87,62,29.97,29.87,8,2,11,0.00
2013-8-3,69,63,60,61,60,58,99,90,71,29.96,29.89,7,2,11,0.00
2013-8-4,65,61,57,61,57,54,99,88,69,29.98,29.85,18,4,21,0.00
2013-8-5,70,61,53,63,58,52,96,89,75,29.99,29.90,5,1,10,0.00
2013-8-6,68,62,56,64,60,54,99,92,77,29.94,29.87,5,1,11,0.00
2013-8-7,63,61,59,62,60,59,100,99,99,29.98,29.92,9,1,11,0.00
2013-8-8,69,63,59,67,63,59,100,98,88,29.99,29.93,2,0,10,0.00
2013-8-9,71,65,61,67,63,61,99,96,83,29.99,29.92,6,1,13,0.00
2013-8-10,70,64,60,67,63,59,99,94,84,30.04,29.96,6,1,16,0.00
2013-8-11,72,65,60,66,62,59,99,92,82,30.06,29.98,7,2,13,0.00
2013-8-12,71,64,61,66,63,60,99,95,83,30.00,29.88,7,2,16,0.00
2013-8-13,69,62,57,64,61,57,99,97,86,29.89,29.75,11,3,19,0.00
2013-8-14,59,55,52,57,52,49,99,90,70,30.02,29.80,11,4,16,0.00
2013-8-15,58,51,47,54,49,46,98,94,84,30.08,30.00,3,0,7,0.00
2013-8-16,62,54,47,55,50,47,99,88,66,30.10,30.04,5,1,10,0.00
2013-8-17,60,54,49,58,52,40,99,90,68,30.11,30.06,5,1,10,0.00
2013-8-18,68,59,54,63,58,54,100,96,75,30.13,30.06,3,0,6,0.00
2013-8-19,63,59,56,62,58,55,99,98,93,30.10,30.01,2,0,4,0.00
2013-8-20,70,62,56,64,60,55,99,93,81,30.11,30.04,4,0,8,0.00
2013-8-21,68,61,57,64,60,57,99,95,84,30.15,30.05,3,0,6,0.00
2013-8-22,69,62,58,62,60,58,99,92,78,30.10,29.97,11,3,13,0.00
2013-8-23,66,61,59,62,60,58,99,97,86,30.01,29.92,11,3,17,0.00
2013-8-24,65,59,54,58,54,49,99,84,62,30.23,30.01,6,1,12,0.00
2013-8-25,64,56,50,56,52,48,98,87,72,30.31,30.21,5,1,11,0.00
2013-8-26,66,58,51,58,55,50,98,88,70,30.27,30.09,11,3,19,0.00
2013-8-27,66,61,58,63,60,57,99,96,85,30.09,29.98,13,4,17,0.00
2013-8-28,70,64,61,65,62,61,100,96,83,29.99,29.86,12,4,21,0.00
2013-8-29,72,65,62,65,63,61,100,92,73,29.92,29.83,17,4,24,0.00
2013-8-30,70,63,60,67,62,60,99,97,87,29.93,29.85,6,0,10,0.00
2013-8-31,70,64,61,66,62,59,99,95,85,29.88,29.80,8,1,14,0.00
2013-9-1,72,64,60,68,62,59,99,94,81,29.83,29.72,9,2,15,0.00
2013-9-2,69,63,59,64,61,59,99,94,84,29.84,29.75,9,2,15,0.00
2013-9-3,65,60,55,61,58,52,99,92,68,29.93,29.75,13,4,20,0.00
2013-9-4,70,62,56,60,55,50,93,81,60,30.05,29.93,7,2,14,0.00
2013-9-5,68,60,55,56,52,41,94,75,41,30.08,30.01,9,3,13,0.00
2013-9-6,67,59,54,61,56,52,98,88,71,30.10,30.02,8,1,12,0.00
2013-9-7,66,60,55,58,57,54,98,89,69,30.05,29.93,7,2,13,0.00
2013-9-8,67,61,58,61,58,57,99,92,75,29.96,29.88,15,4,19,0.00
2013-9-9,70,62,59,63,60,57,98,92,78,30.08,29.96,7,1,10,0.00
2013-9-10,71,63,56,65,60,56,99,91,74,30.17,30.08,3,0,8,0.00
2013-9-11,71,64,58,64,61,56,99,91,77,30.15,30.01,8,2,13,0.00
2013-9-12,68,62,57,64,60,55,99,94,83,30.01,29.78,10,4,19,0.00
2013-9-13,58,54,44,57,51,43,99,91,72,29.86,29.71,17,6,25,0.00
2013-9-14,61,50,41,53,46,39,97,87,66,30.08,29.86,7,1,9,0.00
2013-9-15,62,54,48,56,52,47,99,93,78,30.15,30.07,7,1,11,0.00
2013-9-16,62,56,51,56,54,50,99,93,77,30.12,30.05,8,2,13,0.00
2013-9-17,57,51,47,52,49,46,98,93,79,30.22,30.12,4,0,9,0.00
2013-9-18,59,51,45,55,50,45,99,96,86,30.22,30.13,5,0,11,0.00
2013-9-19,55,54,54,55,54,53,99,99,99,30.14,30.09,8,2,12,0.00
2013-9-23,61,54,48,54,49,-100,97,86,77,30.01,29.96,9,-16,13,0.00
2013-9-24,66,54,46,58,51,45,98,91,73,30.01,29.87,6,1,9,0.00
2013-9-25,54,51,50,53,51,49,98,98,97,29.88,29.78,3,0,7,0.00
2013-9-26,59,52,48,52,46,-100,98,88,71,29.99,29.83,5,-10,9,0.00
2013-9-27,61,53,45,55,49,44,96,87,69,30.11,29.99,6,1,9,0.00
2013-9-28,58,50,45,52,48,44,97,92,76,30.17,30.09,5,1,10,0.00
2013-9-29,59,50,41,52,47,40,98,90,71,30.10,29.99,7,1,11,0.00
2013-9-30,58,51,47,53,50,47,98,94,83,30.04,29.96,4,0,7,0.00
2013-10-1,62,54,48,53,51,47,97,88,71,30.11,30.02,7,2,12,0.00
2013-10-2,64,56,52,55,52,51,97,87,66,30.12,30.04,7,2,15,0.00
2013-10-3,66,58,53,59,54,52,97,90,74,30.08,30.01,5,0,7,0.00
2013-10-4,67,59,54,59,56,53,98,90,75,30.10,30.03,7,2,14,0.00
2013-10-5,70,60,56,61,54,-100,97,85,70,30.08,29.97,5,-9,12,0.00
2013-10-6,65,58,54,59,56,54,98,93,78,29.96,29.80,10,3,18,0.00
2013-10-7,57,50,44,57,48,41,98,96,88,29.98,29.69,12,3,18,0.00
2013-10-8,56,48,43,46,37,23,89,69,37,30.16,29.97,10,3,15,0.00
2013-10-9,60,51,42,47,40,32,84,68,58,30.18,30.08,9,1,9,0.00
2013-10-10,53,49,45,48,43,33,94,80,53,30.07,30.00,12,6,17,0.00
2013-10-11,57,52,47,48,46,42,96,82,65,30.00,29.93,14,6,20,0.00
2013-10-12,53,51,48,52,50,47,98,95,86,30.07,29.93,10,2,14,0.00
2013-10-13,56,53,50,55,52,50,98,98,97,30.16,30.06,5,1,10,0.00
2013-10-14,53,51,49,53,51,48,98,97,94,30.18,30.10,6,1,10,0.00
2013-10-15,62,52,45,53,49,45,98,88,67,30.14,29.98,5,1,9,0.00
2013-10-16,60,51,44,54,48,43,98,92,79,29.98,29.91,11,0,12,0.00
2013-10-17,58,53,45,57,52,45,98,96,92,29.93,29.76,5,1,14,0.00
2013-10-18,59,47,38,49,43,32,98,87,37,29.96,29.81,13,2,15,0.00
2013-10-19,53,46,39,46,42,35,98,88,52,29.90,29.79,18,2,18,0.00
2013-10-20,54,41,30,38,29,2,95,69,16,30.06,29.85,11,2,18,0.00
2013-10-21,57,44,36,46,40,35,97,87,45,30.09,29.97,5,1,10,0.00
2013-10-22,53,47,43,44,41,37,92,80,64,29.97,29.74,9,2,11,0.00
2013-10-23,42,33,24,39,31,22,95,92,88,29.96,29.64,20,5,34,0.00
2013-10-24,34,27,23,30,23,-100,95,90,82,30.19,29.96,16,-9,18,0.05
2013-10-25,27,22,18,26,21,16,95,93,88,30.40,30.20,12,4,22,0.05
2013-10-26,47,35,23,38,22,12,91,62,32,30.40,30.08,9,2,14,0.23
2013-10-27,51,41,34,44,37,31,94,84,59,30.11,30.01,12,4,19,0.01
2013-10-28,49,46,44,46,44,43,97,95,82,30.22,30.09,8,1,13,0.01
2013-10-29,55,48,43,47,45,43,98,90,70,30.30,30.20,7,1,10,0.01
2013-10-30,60,51,46,51,48,44,96,89,69,30.22,30.13,9,2,16,0.01
2013-10-31,53,50,48,52,49,47,98,96,90,30.12,29.72,11,6,22,0.00
2013-11-1,62,52,44,52,46,38,98,80,43,29.73,29.60,9,3,26,0.00
2013-11-2,46,40,34,40,35,30,93,83,63,29.96,29.63,13,4,20,0.00
2013-11-3,38,33,29,31,29,27,96,85,68,30.36,29.94,16,4,25,0.00
2013-11-4,43,34,29,27,25,22,84,71,49,30.48,30.37,8,3,13,0.05
2013-11-5,48,40,29,43,22,5,97,55,18,30.52,30.36,10,4,14,0.02
2013-11-6,52,46,43,47,44,42,98,95,79,30.36,30.06,8,4,14,0.01
2013-11-7,47,38,26,47,37,25,98,96,90,30.06,29.92,19,7,32,0.01
2013-11-8,33,28,23,24,20,14,95,74,47,30.35,30.03,20,7,34,0.02
2013-11-9,50,38,28,21,14,-9,65,41,11,30.35,30.18,6,2,14,0.12
2013-11-10,46,38,32,33,25,8,84,61,27,30.20,30.12,24,8,28,0.12
2013-11-11,54,43,31,20,5,-26,61,24,5,30.29,30.11,9,2,17,0.00
2013-11-12,44,27,11,30,19,9,94,75,26,30.35,29.97,27,8,33,0.00
2013-11-13,33,20,10,18,9,-12,91,69,16,30.61,30.36,19,6,26,0.00
2013-11-14,48,37,31,17,8,-1,51,31,18,30.55,30.27,9,3,15,0.00
2013-11-15,46,41,35,42,26,-4,97,66,15,30.28,30.14,9,3,16,0.30
2013-11-16,53,46,42,49,44,41,98,94,77,30.20,30.11,11,2,14,0.31
2013-11-17,52,48,45,52,48,45,99,98,98,30.10,29.82,14,5,15,0.18
2013-11-18,53,42,30,53,37,22,99,83,55,29.90,29.78,25,7,33,0.02
2013-11-19,37,30,22,23,20,14,88,68,39,30.25,29.89,25,6,30,0.04
2013-11-20,36,28,20,25,21,18,90,76,48,30.43,30.24,8,3,13,0.05
2013-11-21,45,39,26,44,38,24,98,96,89,30.49,30.36,9,5,13,0.04
2013-11-22,52,48,44,51,47,44,98,97,92,30.36,30.04,7,2,17,0.01
2013-11-23,46,32,17,45,31,14,98,95,84,30.08,30.00,17,6,34,0.01
2013-11-24,19,12,6,13,3,-11,92,71,27,30.57,30.07,24,8,34,0.01
2013-11-25,34,26,16,29,-2,-18,96,35,15,30.57,30.25,7,3,11,0.00
2013-11-26,43,37,28,43,36,27,98,98,95,30.24,29.61,12,4,17,0.75
2013-11-27,34,17,8,34,16,7,98,94,92,30.12,29.54,10,0,21,0.75
2013-11-28,37,25,8,18,6,-12,93,52,15,30.50,30.13,5,0,11,0.13
2013-11-29,41,31,22,22,13,-7,81,51,19,30.53,30.43,10,3,14,0.10
2013-11-30,42,30,20,24,18,9,86,63,35,30.52,30.32,7,2,10,0.08
2013-12-1,44,36,33,31,26,9,85,67,33,30.32,29.98,7,2,12,0.28
2013-12-2,43,36,33,35,32,30,92,85,73,29.97,29.79,5,2,10,0.02
2013-12-3,46,40,33,42,38,31,97,94,81,29.91,29.82,4,2,8,0.01
2013-12-4,50,44,40,49,44,40,98,97,91,30.02,29.90,7,3,11,0.01
2013-12-5,56,51,45,55,51,45,99,98,95,30.05,29.92,5,2,9,0.01
2013-12-6,56,54,44,56,54,44,99,99,98,29.93,29.82,7,2,19,0.01
2013-12-7,49,37,29,49,36,29,99,98,94,30.27,29.88,11,2,17,0.02
2013-12-8,41,32,25,41,31,24,99,98,96,30.27,30.15,9,1,16,0.15
2013-12-9,49,42,34,49,42,34,99,98,82,30.15,29.94,11,2,16,0.01
2013-12-10,41,28,15,41,27,14,98,95,83,30.24,29.82,22,6,25,0.01
2013-12-11,37,27,18,18,8,-4,86,49,27,30.46,30.24,17,4,18,0.15
2013-12-12,22,17,13,17,11,2,92,78,45,30.41,30.23,16,7,24,0.15
2013-12-13,39,29,19,18,14,6,68,54,38,30.42,30.24,7,2,12,0.11
2013-12-14,40,32,27,39,29,17,98,88,57,30.26,29.77,14,4,17,0.47
2013-12-15,38,24,18,38,23,17,98,95,94,30.05,29.70,15,5,25,0.61
2013-12-16,35,28,21,32,25,20,98,90,70,30.23,30.04,9,2,18,0.15
2013-12-17,42,33,22,31,27,16,92,78,61,30.15,29.91,17,5,37,0.22
2013-12-18,37,24,14,20,11,-15,92,64,12,30.36,29.96,22,7,30,0.22
2013-12-19,54,44,35,24,20,16,51,40,24,30.36,30.10,8,4,13,0.05
2013-12-20,53,44,37,41,26,14,79,50,29,30.13,30.06,8,3,16,0.05
2013-12-21,53,49,41,53,48,38,99,97,80,30.06,29.85,13,5,23,0.29
2013-12-22,54,50,47,54,50,47,99,99,99,29.96,29.83,21,3,23,1.04
2013-12-23,50,37,21,50,37,20,99,98,96,30.09,29.89,11,2,19,0.18
2013-12-24,21,15,10,20,14,8,96,94,92,30.44,30.09,0,0,0,0.18
2013-12-25,31,22,14,19,12,5,94,67,46,30.53,30.34,0,0,0,0.02
2013-12-26,30,26,22,22,17,8,88,71,44,30.38,30.27,7,1,18,0.02
2013-12-27,37,31,25,22,14,9,77,52,33,30.46,30.35,10,1,12,0.04
2013-12-28,49,41,32,36,10,-11,94,38,10,30.39,30.00,11,2,18,0.14
2013-12-29,40,34,28,40,34,28,98,97,95,29.98,29.71,10,4,25,0.03
2013-12-30,30,28,23,30,28,20,98,97,86,30.12,29.90,0,0,0,0.02
2013-12-31,29,22,17,19,16,12,93,79,54,30.41,30.09,11,2,21,0.02
2014-1-1,35,30,26,22,15,6,84,57,39,30.40,30.10,6,3,10,0.00
2014-1-2,38,30,7,37,25,5,97,83,44,30.09,29.57,17,4,31,0.06